Knottingley, United Kingdom
Current Conditions -  °F | °C
As of 1:50 PM on Saturday 01 Nov 2014 (Local Time) from EGNM Reporting Station
Scattered Clouds Scattered Clouds  
Wind Chill: 54°   Ceiling: Unl
Heat Index: 54°   Visibility: 6mi
Dew Point: 45°   Wind: 14mph
Humidity: 72%   Direction: 210°SSW
Pressure: 29.83"   Gusts: NA
Location:  53.71°N, 1.26°W
Report Text: EGNM 011350Z 21012KT 160V240 9999 FEW020 SCT027 12/07 Q1010
Loading
Personal Weather Stations






























Interactive Weather Map New forecast layout! Learn more

10-Day Weather Forecast

Advertisements
Track Severe Weather on mobile